sensor_id;sensor_type;location;lat;lon;timestamp;P1;durP1;ratioP1;P2;durP2;ratioP2
313;SDS011;143;51.634;7.112;2023-04-23T00:00:01;54.70;;;29.70;;
313;SDS011;143;51.634;7.112;2023-04-23T00:02:28;49.37;;;28.53;;
313;SDS011;143;51.634;7.112;2023-04-23T00:04:57;53.50;;;28.17;;
313;SDS011;143;51.634;7.112;2023-04-23T00:07:28;57.23;;;29.10;;
313;SDS011;143;51.634;7.112;2023-04-23T00:09:55;52.90;;;28.40;;
313;SDS011;143;51.634;7.112;2023-04-23T00:12:22;53.43;;;29.10;;
313;SDS011;143;51.634;7.112;2023-04-23T00:14:48;54.23;;;29.00;;
313;SDS011;143;51.634;7.112;2023-04-23T00:17:14;57.57;;;29.07;;
313;SDS011;143;51.634;7.112;2023-04-23T00:19:40;56.83;;;31.27;;
313;SDS011;143;51.634;7.112;2023-04-23T00:22:06;61.07;;;30.97;;
313;SDS011;143;51.634;7.112;2023-04-23T00:24:31;56.23;;;30.00;;
313;SDS011;143;51.634;7.112;2023-04-23T00:27:00;65.27;;;33.63;;
313;SDS011;143;51.634;7.112;2023-04-23T00:29:26;58.90;;;31.70;;
313;SDS011;143;51.634;7.112;2023-04-23T00:31:51;56.57;;;29.40;;
313;SDS011;143;51.634;7.112;2023-04-23T00:34:17;58.97;;;31.20;;
313;SDS011;143;51.634;7.112;2023-04-23T00:36:43;63.20;;;33.57;;
313;SDS011;143;51.634;7.112;2023-04-23T00:39:08;61.83;;;33.20;;
313;SDS011;143;51.634;7.112;2023-04-23T00:41:35;63.53;;;32.67;;
313;SDS011;143;51.634;7.112;2023-04-23T00:44:01;56.30;;;31.03;;
313;SDS011;143;51.634;7.112;2023-04-23T00:46:27;62.13;;;32.97;;
313;SDS011;143;51.634;7.112;2023-04-23T00:48:53;57.93;;;30.70;;
313;SDS011;143;51.634;7.112;2023-04-23T00:51:20;56.23;;;31.13;;
313;SDS011;143;51.634;7.112;2023-04-23T00:53:47;60.40;;;31.20;;
313;SDS011;143;51.634;7.112;2023-04-23T00:56:13;68.50;;;31.50;;
313;SDS011;143;51.634;7.112;2023-04-23T00:58:39;58.10;;;30.37;;
313;SDS011;143;51.634;7.112;2023-04-23T01:01:05;59.10;;;29.37;;
313;SDS011;143;51.634;7.112;2023-04-23T01:03:31;66.63;;;34.10;;
313;SDS011;143;51.634;7.112;2023-04-23T01:06:00;65.80;;;34.00;;
313;SDS011;143;51.634;7.112;2023-04-23T01:08:26;62.00;;;31.27;;
313;SDS011;143;51.634;7.112;2023-04-23T01:10:53;69.60;;;34.37;;
313;SDS011;143;51.634;7.112;2023-04-23T01:13:18;67.23;;;32.97;;
313;SDS011;143;51.634;7.112;2023-04-23T01:15:46;69.93;;;36.50;;
313;SDS011;143;51.634;7.112;2023-04-23T01:18:12;70.83;;;33.53;;
313;SDS011;143;51.634;7.112;2023-04-23T01:20:38;67.70;;;34.93;;
313;SDS011;143;51.634;7.112;2023-04-23T01:23:04;72.37;;;33.93;;
313;SDS011;143;51.634;7.112;2023-04-23T01:25:30;71.77;;;37.23;;
313;SDS011;143;51.634;7.112;2023-04-23T01:27:56;60.67;;;32.13;;
313;SDS011;143;51.634;7.112;2023-04-23T01:30:24;71.37;;;35.10;;
313;SDS011;143;51.634;7.112;2023-04-23T01:32:51;67.90;;;33.73;;
313;SDS011;143;51.634;7.112;2023-04-23T01:35:19;73.60;;;36.77;;
313;SDS011;143;51.634;7.112;2023-04-23T01:37:45;70.30;;;36.40;;
313;SDS011;143;51.634;7.112;2023-04-23T01:40:12;74.00;;;36.40;;
313;SDS011;143;51.634;7.112;2023-04-23T01:42:38;73.20;;;37.07;;
313;SDS011;143;51.634;7.112;2023-04-23T01:45:05;73.83;;;36.30;;
313;SDS011;143;51.634;7.112;2023-04-23T01:47:32;76.50;;;37.77;;
313;SDS011;143;51.634;7.112;2023-04-23T01:49:59;75.93;;;37.20;;
313;SDS011;143;51.634;7.112;2023-04-23T01:52:25;75.97;;;38.80;;
313;SDS011;143;51.634;7.112;2023-04-23T01:54:50;66.47;;;34.77;;
313;SDS011;143;51.634;7.112;2023-04-23T01:57:16;73.17;;;35.13;;
313;SDS011;143;51.634;7.112;2023-04-23T01:59:48;72.57;;;34.83;;
313;SDS011;143;51.634;7.112;2023-04-23T02:02:14;75.53;;;37.17;;
313;SDS011;143;51.634;7.112;2023-04-23T02:04:41;66.07;;;34.23;;
313;SDS011;143;51.634;7.112;2023-04-23T02:07:09;69.40;;;35.90;;
313;SDS011;143;51.634;7.112;2023-04-23T02:09:35;71.17;;;36.30;;
313;SDS011;143;51.634;7.112;2023-04-23T02:12:01;80.57;;;37.20;;
313;SDS011;143;51.634;7.112;2023-04-23T02:14:27;69.37;;;35.60;;
313;SDS011;143;51.634;7.112;2023-04-23T02:16:53;82.60;;;39.60;;
313;SDS011;143;51.634;7.112;2023-04-23T02:19:20;71.77;;;37.73;;
313;SDS011;143;51.634;7.112;2023-04-23T02:21:46;77.83;;;37.93;;
313;SDS011;143;51.634;7.112;2023-04-23T02:24:12;75.97;;;36.87;;
313;SDS011;143;51.634;7.112;2023-04-23T02:26:37;76.80;;;34.07;;
313;SDS011;143;51.634;7.112;2023-04-23T02:29:03;68.80;;;34.67;;
313;SDS011;143;51.634;7.112;2023-04-23T02:31:29;62.47;;;34.23;;
313;SDS011;143;51.634;7.112;2023-04-23T02:33:55;65.50;;;34.47;;
313;SDS011;143;51.634;7.112;2023-04-23T02:36:20;70.77;;;35.60;;
313;SDS011;143;51.634;7.112;2023-04-23T02:38:46;60.60;;;30.10;;
313;SDS011;143;51.634;7.112;2023-04-23T02:41:15;62.17;;;30.93;;
313;SDS011;143;51.634;7.112;2023-04-23T02:43:40;69.27;;;34.30;;
313;SDS011;143;51.634;7.112;2023-04-23T02:46:06;55.80;;;28.20;;
313;SDS011;143;51.634;7.112;2023-04-23T02:48:34;57.10;;;29.20;;
313;SDS011;143;51.634;7.112;2023-04-23T02:51:00;62.33;;;31.80;;
313;SDS011;143;51.634;7.112;2023-04-23T02:53:27;62.47;;;30.87;;
313;SDS011;143;51.634;7.112;2023-04-23T02:55:52;62.60;;;31.10;;
313;SDS011;143;51.634;7.112;2023-04-23T02:58:18;63.67;;;35.43;;
313;SDS011;143;51.634;7.112;2023-04-23T03:00:44;73.83;;;36.53;;
313;SDS011;143;51.634;7.112;2023-04-23T03:03:10;65.20;;;34.43;;
313;SDS011;143;51.634;7.112;2023-04-23T03:05:35;68.60;;;35.20;;
313;SDS011;143;51.634;7.112;2023-04-23T03:08:01;57.07;;;30.33;;
313;SDS011;143;51.634;7.112;2023-04-23T03:10:26;51.30;;;27.40;;
313;SDS011;143;51.634;7.112;2023-04-23T03:12:52;44.50;;;25.50;;
313;SDS011;143;51.634;7.112;2023-04-23T03:15:18;61.40;;;30.53;;
313;SDS011;143;51.634;7.112;2023-04-23T03:17:44;61.27;;;28.60;;
313;SDS011;143;51.634;7.112;2023-04-23T03:20:10;72.47;;;33.37;;
313;SDS011;143;51.634;7.112;2023-04-23T03:22:36;67.07;;;32.10;;
313;SDS011;143;51.634;7.112;2023-04-23T03:25:01;69.87;;;34.10;;
313;SDS011;143;51.634;7.112;2023-04-23T03:27:28;74.97;;;34.83;;
313;SDS011;143;51.634;7.112;2023-04-23T03:29:53;73.10;;;35.57;;
313;SDS011;143;51.634;7.112;2023-04-23T03:32:19;68.03;;;35.00;;
313;SDS011;143;51.634;7.112;2023-04-23T03:34:44;71.13;;;34.60;;
313;SDS011;143;51.634;7.112;2023-04-23T03:37:10;65.97;;;31.73;;
313;SDS011;143;51.634;7.112;2023-04-23T03:39:37;65.10;;;32.60;;
313;SDS011;143;51.634;7.112;2023-04-23T03:42:02;61.80;;;31.77;;
313;SDS011;143;51.634;7.112;2023-04-23T03:44:29;64.93;;;32.93;;
313;SDS011;143;51.634;7.112;2023-04-23T03:46:55;65.07;;;34.90;;
313;SDS011;143;51.634;7.112;2023-04-23T03:49:20;68.03;;;37.07;;
313;SDS011;143;51.634;7.112;2023-04-23T03:51:46;65.87;;;34.00;;
313;SDS011;143;51.634;7.112;2023-04-23T03:54:12;72.23;;;36.00;;
313;SDS011;143;51.634;7.112;2023-04-23T03:56:38;74.27;;;36.20;;
313;SDS011;143;51.634;7.112;2023-04-23T03:59:03;71.63;;;35.70;;
313;SDS011;143;51.634;7.112;2023-04-23T04:01:29;73.40;;;37.43;;
313;SDS011;143;51.634;7.112;2023-04-23T04:03:56;70.77;;;36.47;;
313;SDS011;143;51.634;7.112;2023-04-23T04:06:22;78.63;;;38.10;;
313;SDS011;143;51.634;7.112;2023-04-23T04:08:48;67.73;;;35.40;;
313;SDS011;143;51.634;7.112;2023-04-23T04:11:14;65.90;;;35.00;;
313;SDS011;143;51.634;7.112;2023-04-23T04:13:39;78.30;;;37.57;;
313;SDS011;143;51.634;7.112;2023-04-23T04:16:05;66.63;;;34.93;;
313;SDS011;143;51.634;7.112;2023-04-23T04:18:31;65.70;;;33.30;;
313;SDS011;143;51.634;7.112;2023-04-23T04:20:56;62.63;;;34.70;;
313;SDS011;143;51.634;7.112;2023-04-23T04:23:22;62.23;;;33.30;;
313;SDS011;143;51.634;7.112;2023-04-23T04:25:48;67.43;;;34.23;;
313;SDS011;143;51.634;7.112;2023-04-23T04:28:15;64.00;;;32.50;;
313;SDS011;143;51.634;7.112;2023-04-23T04:30:41;60.70;;;32.03;;
313;SDS011;143;51.634;7.112;2023-04-23T04:33:08;69.37;;;35.00;;
313;SDS011;143;51.634;7.112;2023-04-23T04:35:33;64.93;;;34.83;;
313;SDS011;143;51.634;7.112;2023-04-23T04:37:59;57.17;;;33.33;;
313;SDS011;143;51.634;7.112;2023-04-23T04:40:25;59.23;;;32.73;;
313;SDS011;143;51.634;7.112;2023-04-23T04:42:52;70.83;;;36.17;;
313;SDS011;143;51.634;7.112;2023-04-23T04:45:19;60.23;;;33.17;;
313;SDS011;143;51.634;7.112;2023-04-23T04:47:44;63.00;;;33.73;;
313;SDS011;143;51.634;7.112;2023-04-23T04:50:10;64.70;;;35.90;;
313;SDS011;143;51.634;7.112;2023-04-23T04:52:36;66.27;;;34.70;;
313;SDS011;143;51.634;7.112;2023-04-23T04:55:02;56.83;;;32.60;;
313;SDS011;143;51.634;7.112;2023-04-23T04:57:28;58.77;;;31.53;;
313;SDS011;143;51.634;7.112;2023-04-23T04:59:54;61.27;;;34.30;;
313;SDS011;143;51.634;7.112;2023-04-23T05:02:19;56.23;;;31.30;;
313;SDS011;143;51.634;7.112;2023-04-23T05:04:47;56.53;;;32.93;;
313;SDS011;143;51.634;7.112;2023-04-23T05:07:13;56.20;;;31.73;;
313;SDS011;143;51.634;7.112;2023-04-23T05:09:39;61.20;;;33.00;;
313;SDS011;143;51.634;7.112;2023-04-23T05:12:05;55.90;;;29.80;;
313;SDS011;143;51.634;7.112;2023-04-23T05:14:33;57.30;;;31.53;;
313;SDS011;143;51.634;7.112;2023-04-23T05:16:59;50.97;;;30.83;;
313;SDS011;143;51.634;7.112;2023-04-23T05:19:25;58.40;;;32.23;;
313;SDS011;143;51.634;7.112;2023-04-23T05:21:50;57.87;;;29.90;;
313;SDS011;143;51.634;7.112;2023-04-23T05:24:16;49.43;;;30.17;;
313;SDS011;143;51.634;7.112;2023-04-23T05:26:42;53.37;;;31.50;;
313;SDS011;143;51.634;7.112;2023-04-23T05:29:07;53.80;;;29.00;;
313;SDS011;143;51.634;7.112;2023-04-23T05:31:33;54.43;;;30.77;;
313;SDS011;143;51.634;7.112;2023-04-23T05:33:59;51.50;;;30.30;;
313;SDS011;143;51.634;7.112;2023-04-23T05:36:25;45.13;;;27.00;;
313;SDS011;143;51.634;7.112;2023-04-23T05:38:51;44.10;;;27.07;;
313;SDS011;143;51.634;7.112;2023-04-23T05:41:17;51.53;;;30.50;;
313;SDS011;143;51.634;7.112;2023-04-23T05:43:42;50.37;;;28.27;;
313;SDS011;143;51.634;7.112;2023-04-23T05:46:08;43.87;;;25.90;;
313;SDS011;143;51.634;7.112;2023-04-23T05:48:34;42.70;;;25.60;;
313;SDS011;143;51.634;7.112;2023-04-23T05:50:59;46.17;;;27.00;;
313;SDS011;143;51.634;7.112;2023-04-23T05:53:26;44.50;;;25.43;;
313;SDS011;143;51.634;7.112;2023-04-23T05:55:52;37.20;;;24.30;;
313;SDS011;143;51.634;7.112;2023-04-23T05:58:18;37.73;;;21.87;;
313;SDS011;143;51.634;7.112;2023-04-23T06:00:44;33.67;;;21.20;;
313;SDS011;143;51.634;7.112;2023-04-23T06:03:09;35.27;;;22.90;;
313;SDS011;143;51.634;7.112;2023-04-23T06:05:35;35.33;;;21.40;;
313;SDS011;143;51.634;7.112;2023-04-23T06:08:02;47.83;;;23.10;;
313;SDS011;143;51.634;7.112;2023-04-23T06:10:28;35.80;;;22.40;;
313;SDS011;143;51.634;7.112;2023-04-23T06:12:54;36.43;;;22.70;;
313;SDS011;143;51.634;7.112;2023-04-23T06:15:19;36.90;;;22.50;;
313;SDS011;143;51.634;7.112;2023-04-23T06:17:46;38.70;;;22.60;;
313;SDS011;143;51.634;7.112;2023-04-23T06:20:12;49.07;;;24.63;;
313;SDS011;143;51.634;7.112;2023-04-23T06:22:38;35.73;;;21.07;;
313;SDS011;143;51.634;7.112;2023-04-23T06:25:04;37.23;;;21.97;;
313;SDS011;143;51.634;7.112;2023-04-23T06:27:29;37.53;;;22.23;;
313;SDS011;143;51.634;7.112;2023-04-23T06:29:57;40.00;;;22.20;;
313;SDS011;143;51.634;7.112;2023-04-23T06:32:22;43.07;;;22.23;;
313;SDS011;143;51.634;7.112;2023-04-23T06:34:48;33.23;;;21.43;;
313;SDS011;143;51.634;7.112;2023-04-23T06:37:14;32.20;;;20.80;;
313;SDS011;143;51.634;7.112;2023-04-23T06:39:39;33.47;;;19.80;;
313;SDS011;143;51.634;7.112;2023-04-23T06:42:05;37.00;;;21.77;;
313;SDS011;143;51.634;7.112;2023-04-23T06:44:31;39.93;;;20.90;;
313;SDS011;143;51.634;7.112;2023-04-23T06:46:56;35.73;;;21.10;;
313;SDS011;143;51.634;7.112;2023-04-23T06:49:22;31.67;;;20.00;;
313;SDS011;143;51.634;7.112;2023-04-23T06:51:48;34.93;;;19.20;;
313;SDS011;143;51.634;7.112;2023-04-23T06:54:13;34.20;;;19.17;;
313;SDS011;143;51.634;7.112;2023-04-23T06:56:39;34.77;;;20.20;;
313;SDS011;143;51.634;7.112;2023-04-23T06:59:04;32.53;;;18.77;;
313;SDS011;143;51.634;7.112;2023-04-23T07:01:30;28.03;;;17.73;;
313;SDS011;143;51.634;7.112;2023-04-23T07:03:56;30.10;;;17.77;;
313;SDS011;143;51.634;7.112;2023-04-23T07:06:22;29.03;;;18.00;;
313;SDS011;143;51.634;7.112;2023-04-23T07:08:47;33.27;;;18.20;;
313;SDS011;143;51.634;7.112;2023-04-23T07:11:13;25.90;;;18.20;;
313;SDS011;143;51.634;7.112;2023-04-23T07:13:39;25.77;;;16.37;;
313;SDS011;143;51.634;7.112;2023-04-23T07:16:04;27.67;;;17.37;;
313;SDS011;143;51.634;7.112;2023-04-23T07:18:30;23.60;;;14.67;;
313;SDS011;143;51.634;7.112;2023-04-23T07:20:56;21.03;;;13.77;;
313;SDS011;143;51.634;7.112;2023-04-23T07:23:22;22.03;;;12.07;;
313;SDS011;143;51.634;7.112;2023-04-23T07:25:47;18.17;;;11.93;;
313;SDS011;143;51.634;7.112;2023-04-23T07:28:13;20.20;;;11.97;;
313;SDS011;143;51.634;7.112;2023-04-23T07:30:39;19.60;;;12.17;;
313;SDS011;143;51.634;7.112;2023-04-23T07:33:04;19.27;;;11.50;;
313;SDS011;143;51.634;7.112;2023-04-23T07:35:30;19.90;;;11.60;;
313;SDS011;143;51.634;7.112;2023-04-23T07:37:56;16.50;;;11.00;;
313;SDS011;143;51.634;7.112;2023-04-23T07:40:22;21.43;;;11.00;;
313;SDS011;143;51.634;7.112;2023-04-23T07:42:49;22.63;;;11.30;;
313;SDS011;143;51.634;7.112;2023-04-23T07:45:15;17.63;;;11.60;;
313;SDS011;143;51.634;7.112;2023-04-23T07:47:42;17.50;;;9.60;;
313;SDS011;143;51.634;7.112;2023-04-23T07:50:08;18.10;;;8.73;;
313;SDS011;143;51.634;7.112;2023-04-23T07:52:34;20.23;;;10.27;;
313;SDS011;143;51.634;7.112;2023-04-23T07:55:00;17.60;;;8.27;;
313;SDS011;143;51.634;7.112;2023-04-23T07:57:26;18.53;;;9.40;;
313;SDS011;143;51.634;7.112;2023-04-23T07:59:52;17.33;;;9.90;;
313;SDS011;143;51.634;7.112;2023-04-23T08:02:17;16.83;;;7.97;;
313;SDS011;143;51.634;7.112;2023-04-23T08:04:50;11.57;;;8.17;;
313;SDS011;143;51.634;7.112;2023-04-23T08:07:16;18.10;;;8.90;;
313;SDS011;143;51.634;7.112;2023-04-23T08:09:41;11.50;;;7.70;;
313;SDS011;143;51.634;7.112;2023-04-23T08:12:07;11.97;;;7.03;;
313;SDS011;143;51.634;7.112;2023-04-23T08:14:33;13.60;;;7.07;;
313;SDS011;143;51.634;7.112;2023-04-23T08:16:58;12.43;;;6.60;;
313;SDS011;143;51.634;7.112;2023-04-23T08:19:24;13.37;;;7.87;;
313;SDS011;143;51.634;7.112;2023-04-23T08:21:55;11.90;;;5.93;;
313;SDS011;143;51.634;7.112;2023-04-23T08:24:21;11.10;;;6.63;;
313;SDS011;143;51.634;7.112;2023-04-23T08:26:46;16.43;;;6.20;;
313;SDS011;143;51.634;7.112;2023-04-23T08:29:12;11.50;;;6.10;;
313;SDS011;143;51.634;7.112;2023-04-23T08:31:38;14.33;;;6.47;;
313;SDS011;143;51.634;7.112;2023-04-23T08:34:03;9.60;;;5.70;;
313;SDS011;143;51.634;7.112;2023-04-23T08:36:29;10.50;;;5.60;;
313;SDS011;143;51.634;7.112;2023-04-23T08:38:56;18.53;;;5.83;;
313;SDS011;143;51.634;7.112;2023-04-23T08:41:22;10.03;;;5.93;;
313;SDS011;143;51.634;7.112;2023-04-23T08:43:53;12.83;;;5.50;;
313;SDS011;143;51.634;7.112;2023-04-23T08:46:41;6.97;;;5.30;;
313;SDS011;143;51.634;7.112;2023-04-23T08:49:07;9.47;;;5.03;;
313;SDS011;143;51.634;7.112;2023-04-23T08:51:38;13.53;;;4.60;;
313;SDS011;143;51.634;7.112;2023-04-23T08:54:14;11.60;;;6.77;;
313;SDS011;143;51.634;7.112;2023-04-23T08:56:45;15.83;;;6.00;;
313;SDS011;143;51.634;7.112;2023-04-23T08:59:12;7.00;;;4.83;;
313;SDS011;143;51.634;7.112;2023-04-23T09:01:38;14.07;;;5.60;;
313;SDS011;143;51.634;7.112;2023-04-23T09:04:05;9.50;;;5.60;;
313;SDS011;143;51.634;7.112;2023-04-23T09:06:31;7.60;;;4.90;;
313;SDS011;143;51.634;7.112;2023-04-23T09:08:57;10.63;;;4.60;;
313;SDS011;143;51.634;7.112;2023-04-23T09:11:24;9.87;;;4.73;;
313;SDS011;143;51.634;7.112;2023-04-23T09:13:51;9.60;;;4.60;;
313;SDS011;143;51.634;7.112;2023-04-23T09:16:17;11.40;;;5.17;;
313;SDS011;143;51.634;7.112;2023-04-23T09:18:43;7.77;;;4.77;;
313;SDS011;143;51.634;7.112;2023-04-23T09:21:10;7.60;;;4.67;;
313;SDS011;143;51.634;7.112;2023-04-23T09:23:37;8.47;;;4.47;;
313;SDS011;143;51.634;7.112;2023-04-23T09:26:05;11.40;;;3.90;;
313;SDS011;143;51.634;7.112;2023-04-23T09:28:35;7.93;;;3.47;;
313;SDS011;143;51.634;7.112;2023-04-23T09:31:03;7.80;;;3.40;;
313;SDS011;143;51.634;7.112;2023-04-23T09:33:35;8.73;;;3.63;;
313;SDS011;143;51.634;7.112;2023-04-23T09:36:20;9.87;;;4.23;;
313;SDS011;143;51.634;7.112;2023-04-23T09:38:49;7.37;;;3.43;;
313;SDS011;143;51.634;7.112;2023-04-23T09:41:23;13.47;;;3.80;;
313;SDS011;143;51.634;7.112;2023-04-23T09:43:53;7.67;;;3.20;;
313;SDS011;143;51.634;7.112;2023-04-23T09:46:35;9.40;;;3.50;;
313;SDS011;143;51.634;7.112;2023-04-23T09:49:06;12.80;;;3.67;;
313;SDS011;143;51.634;7.112;2023-04-23T09:51:37;13.73;;;3.43;;
313;SDS011;143;51.634;7.112;2023-04-23T09:54:14;8.17;;;3.23;;
313;SDS011;143;51.634;7.112;2023-04-23T09:56:40;8.00;;;2.70;;
313;SDS011;143;51.634;7.112;2023-04-23T09:59:28;7.60;;;2.80;;
313;SDS011;143;51.634;7.112;2023-04-23T10:01:54;6.50;;;2.93;;
313;SDS011;143;51.634;7.112;2023-04-23T10:04:24;8.70;;;2.67;;
313;SDS011;143;51.634;7.112;2023-04-23T10:06:53;8.80;;;3.40;;
313;SDS011;143;51.634;7.112;2023-04-23T10:09:20;5.40;;;3.00;;
313;SDS011;143;51.634;7.112;2023-04-23T10:11:51;4.20;;;2.90;;
313;SDS011;143;51.634;7.112;2023-04-23T10:14:22;7.23;;;2.80;;
313;SDS011;143;51.634;7.112;2023-04-23T10:16:52;8.27;;;3.23;;
313;SDS011;143;51.634;7.112;2023-04-23T10:19:25;3.63;;;3.10;;
313;SDS011;143;51.634;7.112;2023-04-23T10:22:00;7.30;;;3.40;;
313;SDS011;143;51.634;7.112;2023-04-23T10:24:33;8.73;;;3.73;;
313;SDS011;143;51.634;7.112;2023-04-23T10:27:02;4.47;;;3.13;;
313;SDS011;143;51.634;7.112;2023-04-23T10:29:30;13.87;;;3.40;;
313;SDS011;143;51.634;7.112;2023-04-23T10:32:01;4.93;;;3.20;;
313;SDS011;143;51.634;7.112;2023-04-23T10:34:29;6.33;;;3.40;;
313;SDS011;143;51.634;7.112;2023-04-23T10:36:56;8.60;;;3.50;;
313;SDS011;143;51.634;7.112;2023-04-23T10:39:25;4.23;;;2.83;;
313;SDS011;143;51.634;7.112;2023-04-23T10:41:56;9.50;;;3.17;;
313;SDS011;143;51.634;7.112;2023-04-23T10:44:30;6.03;;;2.80;;
313;SDS011;143;51.634;7.112;2023-04-23T10:46:57;6.93;;;2.93;;
313;SDS011;143;51.634;7.112;2023-04-23T10:49:24;4.07;;;2.70;;
313;SDS011;143;51.634;7.112;2023-04-23T10:51:57;5.80;;;2.70;;
313;SDS011;143;51.634;7.112;2023-04-23T10:54:24;3.67;;;2.30;;
313;SDS011;143;51.634;7.112;2023-04-23T10:56:57;8.20;;;2.43;;
313;SDS011;143;51.634;7.112;2023-04-23T10:59:26;6.23;;;2.17;;
313;SDS011;143;51.634;7.112;2023-04-23T11:01:54;4.97;;;2.20;;
313;SDS011;143;51.634;7.112;2023-04-23T11:04:26;5.40;;;2.50;;
313;SDS011;143;51.634;7.112;2023-04-23T11:06:54;4.60;;;2.40;;
313;SDS011;143;51.634;7.112;2023-04-23T11:11:59;9.07;;;2.63;;
313;SDS011;143;51.634;7.112;2023-04-23T11:14:32;4.93;;;1.87;;
313;SDS011;143;51.634;7.112;2023-04-23T11:17:00;6.40;;;2.80;;
313;SDS011;143;51.634;7.112;2023-04-23T11:19:26;5.43;;;3.23;;
313;SDS011;143;51.634;7.112;2023-04-23T11:21:59;5.57;;;3.00;;
313;SDS011;143;51.634;7.112;2023-04-23T11:24:31;12.83;;;2.97;;
313;SDS011;143;51.634;7.112;2023-04-23T11:26:57;5.17;;;2.73;;
313;SDS011;143;51.634;7.112;2023-04-23T11:29:24;4.60;;;2.80;;
313;SDS011;143;51.634;7.112;2023-04-23T11:31:51;3.47;;;2.50;;
313;SDS011;143;51.634;7.112;2023-04-23T11:34:18;4.90;;;2.83;;
313;SDS011;143;51.634;7.112;2023-04-23T11:36:45;5.17;;;2.67;;
313;SDS011;143;51.634;7.112;2023-04-23T11:39:12;5.30;;;2.53;;
313;SDS011;143;51.634;7.112;2023-04-23T11:41:38;9.00;;;3.10;;
313;SDS011;143;51.634;7.112;2023-04-23T11:44:04;6.87;;;2.50;;
313;SDS011;143;51.634;7.112;2023-04-23T11:46:30;5.43;;;2.10;;
313;SDS011;143;51.634;7.112;2023-04-23T11:48:58;8.37;;;2.20;;
313;SDS011;143;51.634;7.112;2023-04-23T11:51:25;7.70;;;2.10;;
313;SDS011;143;51.634;7.112;2023-04-23T11:53:51;6.03;;;2.00;;
313;SDS011;143;51.634;7.112;2023-04-23T11:56:16;5.43;;;2.23;;
313;SDS011;143;51.634;7.112;2023-04-23T11:58:44;3.00;;;2.10;;
313;SDS011;143;51.634;7.112;2023-04-23T12:01:10;4.03;;;2.60;;
313;SDS011;143;51.634;7.112;2023-04-23T12:03:39;7.77;;;2.10;;
313;SDS011;143;51.634;7.112;2023-04-23T12:06:05;4.40;;;2.37;;
313;SDS011;143;51.634;7.112;2023-04-23T12:08:32;3.50;;;2.07;;
313;SDS011;143;51.634;7.112;2023-04-23T12:11:04;6.00;;;2.53;;
313;SDS011;143;51.634;7.112;2023-04-23T12:13:31;5.33;;;2.00;;
313;SDS011;143;51.634;7.112;2023-04-23T12:18:28;3.40;;;1.70;;
313;SDS011;143;51.634;7.112;2023-04-23T12:20:54;6.53;;;2.20;;
313;SDS011;143;51.634;7.112;2023-04-23T12:23:28;2.67;;;1.50;;
313;SDS011;143;51.634;7.112;2023-04-23T12:25:54;4.83;;;1.80;;
313;SDS011;143;51.634;7.112;2023-04-23T12:28:23;7.40;;;2.20;;
313;SDS011;143;51.634;7.112;2023-04-23T12:30:49;3.90;;;2.03;;
313;SDS011;143;51.634;7.112;2023-04-23T12:33:15;1.70;;;1.57;;
313;SDS011;143;51.634;7.112;2023-04-23T12:35:42;7.70;;;2.43;;
313;SDS011;143;51.634;7.112;2023-04-23T12:38:27;4.07;;;1.33;;
313;SDS011;143;51.634;7.112;2023-04-23T12:40:53;3.40;;;1.33;;
313;SDS011;143;51.634;7.112;2023-04-23T12:43:23;4.90;;;1.50;;
313;SDS011;143;51.634;7.112;2023-04-23T12:45:50;4.80;;;1.40;;
313;SDS011;143;51.634;7.112;2023-04-23T12:48:17;4.47;;;1.60;;
313;SDS011;143;51.634;7.112;2023-04-23T12:50:46;5.70;;;1.87;;
313;SDS011;143;51.634;7.112;2023-04-23T12:53:12;6.50;;;1.47;;
313;SDS011;143;51.634;7.112;2023-04-23T12:55:38;4.20;;;1.83;;
313;SDS011;143;51.634;7.112;2023-04-23T12:58:04;3.23;;;1.80;;
313;SDS011;143;51.634;7.112;2023-04-23T13:00:30;4.27;;;1.97;;
313;SDS011;143;51.634;7.112;2023-04-23T13:02:55;7.73;;;1.70;;
313;SDS011;143;51.634;7.112;2023-04-23T13:05:22;4.57;;;2.00;;
313;SDS011;143;51.634;7.112;2023-04-23T13:07:47;7.10;;;2.20;;
313;SDS011;143;51.634;7.112;2023-04-23T13:10:13;12.57;;;1.90;;
313;SDS011;143;51.634;7.112;2023-04-23T13:12:39;6.20;;;1.80;;
313;SDS011;143;51.634;7.112;2023-04-23T13:15:06;5.77;;;2.20;;
313;SDS011;143;51.634;7.112;2023-04-23T13:17:33;3.57;;;1.37;;
313;SDS011;143;51.634;7.112;2023-04-23T13:20:00;3.53;;;1.77;;
313;SDS011;143;51.634;7.112;2023-04-23T13:22:26;3.40;;;1.20;;
313;SDS011;143;51.634;7.112;2023-04-23T13:24:53;3.73;;;1.40;;
313;SDS011;143;51.634;7.112;2023-04-23T13:27:21;4.03;;;1.37;;
313;SDS011;143;51.634;7.112;2023-04-23T13:29:48;12.00;;;1.60;;
313;SDS011;143;51.634;7.112;2023-04-23T13:32:14;2.73;;;1.30;;
313;SDS011;143;51.634;7.112;2023-04-23T13:34:40;3.70;;;1.80;;
313;SDS011;143;51.634;7.112;2023-04-23T13:37:06;5.13;;;1.30;;
313;SDS011;143;51.634;7.112;2023-04-23T13:39:33;4.90;;;1.27;;
313;SDS011;143;51.634;7.112;2023-04-23T13:42:00;5.47;;;1.50;;
313;SDS011;143;51.634;7.112;2023-04-23T13:44:28;5.17;;;1.80;;
313;SDS011;143;51.634;7.112;2023-04-23T13:46:54;4.07;;;1.80;;
313;SDS011;143;51.634;7.112;2023-04-23T13:49:22;4.50;;;1.40;;
313;SDS011;143;51.634;7.112;2023-04-23T13:51:51;4.10;;;1.20;;
313;SDS011;143;51.634;7.112;2023-04-23T13:54:22;2.80;;;1.50;;
313;SDS011;143;51.634;7.112;2023-04-23T13:56:48;6.10;;;1.63;;
313;SDS011;143;51.634;7.112;2023-04-23T13:59:14;2.23;;;1.37;;
313;SDS011;143;51.634;7.112;2023-04-23T14:01:40;2.43;;;1.30;;
313;SDS011;143;51.634;7.112;2023-04-23T14:04:05;3.10;;;1.10;;
313;SDS011;143;51.634;7.112;2023-04-23T14:06:31;3.17;;;1.30;;
313;SDS011;143;51.634;7.112;2023-04-23T14:08:57;5.60;;;1.77;;
313;SDS011;143;51.634;7.112;2023-04-23T14:11:22;1.80;;;0.90;;
313;SDS011;143;51.634;7.112;2023-04-23T14:13:48;14.57;;;1.70;;
313;SDS011;143;51.634;7.112;2023-04-23T14:16:14;2.57;;;1.00;;
313;SDS011;143;51.634;7.112;2023-04-23T14:18:41;3.50;;;1.33;;
313;SDS011;143;51.634;7.112;2023-04-23T14:21:06;4.10;;;1.80;;
313;SDS011;143;51.634;7.112;2023-04-23T14:23:48;4.20;;;1.30;;
313;SDS011;143;51.634;7.112;2023-04-23T14:26:26;2.80;;;1.30;;
313;SDS011;143;51.634;7.112;2023-04-23T14:28:57;3.53;;;1.33;;
313;SDS011;143;51.634;7.112;2023-04-23T14:31:42;3.00;;;1.27;;
313;SDS011;143;51.634;7.112;2023-04-23T14:34:08;2.43;;;1.20;;
313;SDS011;143;51.634;7.112;2023-04-23T14:36:33;4.17;;;1.67;;
313;SDS011;143;51.634;7.112;2023-04-23T14:39:00;2.00;;;1.20;;
313;SDS011;143;51.634;7.112;2023-04-23T14:41:29;1.77;;;1.20;;
313;SDS011;143;51.634;7.112;2023-04-23T14:44:00;5.00;;;1.30;;
313;SDS011;143;51.634;7.112;2023-04-23T14:46:26;9.07;;;1.90;;
313;SDS011;143;51.634;7.112;2023-04-23T14:48:52;6.30;;;1.33;;
313;SDS011;143;51.634;7.112;2023-04-23T14:51:18;3.47;;;1.60;;
313;SDS011;143;51.634;7.112;2023-04-23T14:53:44;3.33;;;1.43;;
313;SDS011;143;51.634;7.112;2023-04-23T14:56:10;3.33;;;1.40;;
313;SDS011;143;51.634;7.112;2023-04-23T14:58:35;5.00;;;1.60;;
313;SDS011;143;51.634;7.112;2023-04-23T15:01:01;2.20;;;1.43;;
313;SDS011;143;51.634;7.112;2023-04-23T15:03:27;3.10;;;1.20;;
313;SDS011;143;51.634;7.112;2023-04-23T15:05:53;2.40;;;1.10;;
313;SDS011;143;51.634;7.112;2023-04-23T15:08:19;3.93;;;1.13;;
313;SDS011;143;51.634;7.112;2023-04-23T15:10:45;1.77;;;1.17;;
313;SDS011;143;51.634;7.112;2023-04-23T15:18:13;3.20;;;1.30;;
313;SDS011;143;51.634;7.112;2023-04-23T15:20:39;4.90;;;1.20;;
313;SDS011;143;51.634;7.112;2023-04-23T15:23:06;2.30;;;1.40;;
313;SDS011;143;51.634;7.112;2023-04-23T15:25:32;3.13;;;1.00;;
313;SDS011;143;51.634;7.112;2023-04-23T15:27:58;4.70;;;1.20;;
313;SDS011;143;51.634;7.112;2023-04-23T15:30:28;3.43;;;1.50;;
313;SDS011;143;51.634;7.112;2023-04-23T15:32:54;6.77;;;1.20;;
313;SDS011;143;51.634;7.112;2023-04-23T15:35:23;2.50;;;1.27;;